Time;durP1;ratioP1;P1;durP2;ratioP2;P2;SDS_P1;SDS_P2;PMS_P1;PMS_P2;Temp;Humidity;BMP_temperature;BMP_pressure;BME280_temperature;BME280_humidity;BME280_pressure;Samples;Min_cycle;Max_cycle;Signal;HPM_P1;HPM_P2
2022/10/14 00:00:32;;;;;;;;;6.00;6.00;;;;;17.33;71.97;100736.41;4995590;28;45663;-77
2022/10/14 00:02:58;;;;;;;;;6.50;6.00;;;;;17.34;72.70;100735.41;4995570;28;45600;-77
2022/10/14 00:05:23;;;;;;;;;8.25;6.00;;;;;17.34;72.34;100738.88;4995356;28;46314;-77
2022/10/14 00:07:49;;;;;;;;;6.00;6.00;;;;;17.30;72.41;100729.59;4995117;28;46025;-76
2022/10/14 00:10:14;;;;;;;;;8.00;6.25;;;;;17.35;72.13;100734.44;4995131;28;45471;-76
2022/10/14 00:12:40;;;;;;;;;6.25;6.00;;;;;17.34;72.56;100732.75;4995320;28;45556;-77
2022/10/14 00:15:06;;;;;;;;;7.00;6.50;;;;;17.35;72.64;100729.97;4995164;28;46530;-76
2022/10/14 00:17:31;;;;;;;;;7.75;6.75;;;;;17.34;72.77;100725.66;4995171;28;45497;-77
2022/10/14 00:19:57;;;;;;;;;7.00;6.75;;;;;17.33;72.70;100728.47;4995024;28;45560;-77
2022/10/14 00:22:22;;;;;;;;;6.50;6.00;;;;;17.32;72.74;100718.84;4995211;28;45501;-78
2022/10/14 00:28:09;;;;;;;;;6.75;6.00;;;;;17.34;72.57;100725.66;4994704;28;45658;-76
2022/10/14 00:30:34;;;;;;;;;5.75;5.75;;;;;17.32;72.60;100717.03;4994862;28;45454;-76
2022/10/14 00:33:00;;;;;;;;;4.75;4.25;;;;;17.32;72.36;100706.44;4995112;28;45863;-77
2022/10/14 00:35:25;;;;;;;;;6.00;5.75;;;;;17.34;72.29;100711.56;4995039;28;45492;-76
2022/10/14 00:37:51;;;;;;;;;4.00;4.00;;;;;17.34;72.67;100699.16;4994634;28;46174;-76
2022/10/14 00:44:03;;;;;;;;;4.25;4.00;;;;;17.34;72.65;100693.03;4994754;28;45617;-76
2022/10/14 00:46:35;;;;;;;;;6.00;5.00;;;;;17.34;72.97;100688.56;4994742;28;46759;-76
2022/10/14 00:49:06;;;;;;;;;5.50;5.00;;;;;17.32;72.96;100693.19;4992986;28;47433;-76
2022/10/14 00:51:33;;;;;;;;;6.50;5.50;;;;;17.30;72.68;100689.03;4994647;28;45633;-76
2022/10/14 00:53:59;;;;;;;;;4.75;4.75;;;;;17.31;72.60;100690.69;4994748;28;45489;-76
2022/10/14 00:56:28;;;;;;;;;4.50;4.00;;;;;17.31;72.83;100688.03;4994709;28;46571;-76
2022/10/14 00:58:54;;;;;;;;;4.25;4.00;;;;;17.30;72.55;100678.44;4994147;28;46208;-78
2022/10/14 01:01:20;;;;;;;;;3.00;3.00;;;;;17.32;72.70;100684.41;4994710;28;45762;-79
2022/10/14 01:03:45;;;;;;;;;5.00;3.00;;;;;17.29;72.43;100674.09;4994694;28;45693;-78
2022/10/14 01:06:44;;;;;;;;;6.00;5.25;;;;;17.33;72.70;100681.59;4994420;28;45606;-78
2022/10/14 01:09:24;;;;;;;;;4.00;3.75;;;;;17.34;72.62;100685.09;4994111;28;45686;-78
2022/10/14 01:12:14;;;;;;;;;6.00;5.25;;;;;17.32;72.70;100679.13;4994352;28;45695;-78
2022/10/14 01:14:58;;;;;;;;;5.00;4.00;;;;;17.33;72.29;100673.66;4994601;28;45648;-78
2022/10/14 01:17:35;;;;;;;;;4.00;4.00;;;;;17.35;72.24;100673.50;4976352;28;47548;-78
2022/10/14 01:20:21;;;;;;;;;3.00;3.00;;;;;17.34;72.33;100672.69;4994264;28;45672;-77
2022/10/14 01:23:07;;;;;;;;;4.75;4.00;;;;;17.34;72.59;100667.38;4994851;28;45539;-77
2022/10/14 01:25:49;;;;;;;;;7.00;5.75;;;;;17.33;72.82;100655.13;4995173;28;45750;-77
2022/10/14 01:28:45;;;;;;;;;0.75;0.00;;;;;17.32;72.79;100656.13;4994712;28;45689;-75
2022/10/14 01:31:18;;;;;;;;;5.00;3.25;;;;;17.31;72.32;100649.16;4994074;28;45607;-77
2022/10/14 01:33:48;;;;;;;;;5.00;4.75;;;;;17.33;72.25;100644.53;4994234;28;45784;-76
2022/10/14 01:36:24;;;;;;;;;4.50;4.00;;;;;17.34;72.48;100648.84;4976813;28;45671;-77
2022/10/14 01:42:21;;;;;;;;;5.00;4.50;;;;;17.34;72.41;100653.31;4993697;28;45891;-77
2022/10/14 01:44:56;;;;;;;;;5.50;4.50;;;;;17.33;73.00;100644.53;4976199;28;45749;-77
2022/10/14 01:47:25;;;;;;;;;5.00;5.00;;;;;17.32;73.13;100648.19;4997565;28;45529;-76
2022/10/14 01:50:02;;;;;;;;;5.50;5.50;;;;;17.31;72.95;100635.91;4997335;28;46699;-77
2022/10/14 01:52:35;;;;;;;;;3.50;3.50;;;;;17.31;73.32;100635.06;4997406;28;46517;-77
2022/10/14 01:58:27;;;;;;;;;6.75;5.25;;;;;17.30;73.05;100641.34;4996739;28;45517;-78
2022/10/14 02:00:52;;;;;;;;;7.00;6.50;;;;;17.27;72.99;100633.72;4997499;28;45607;-78
2022/10/14 02:03:18;;;;;;;;;5.25;4.50;;;;;17.27;73.48;100637.22;4997451;28;45612;-76
2022/10/14 02:06:00;;;;;;;;;6.00;5.25;;;;;17.26;73.60;100638.19;4997337;28;45594;-76
2022/10/14 02:15:24;;;;;;;;;5.00;5.00;;;;;17.23;73.57;100633.16;4996905;28;45889;-78
2022/10/14 02:18:05;;;;;;;;;5.25;4.00;;;;;17.21;73.50;100621.91;4997636;28;45635;-78
2022/10/14 02:20:44;;;;;;;;;4.00;4.00;;;;;17.21;73.54;100624.56;4997346;28;45551;-78
2022/10/14 02:23:15;;;;;;;;;5.00;4.00;;;;;17.20;73.49;100614.94;4997004;28;45837;-78
2022/10/14 02:25:46;;;;;;;;;6.75;4.75;;;;;17.19;73.77;100618.56;4997226;28;46285;-78
2022/10/14 02:28:17;;;;;;;;;4.00;3.25;;;;;17.20;74.08;100621.09;4997077;28;45729;-78
2022/10/14 02:30:50;;;;;;;;;4.50;4.00;;;;;17.17;74.08;100621.38;4979280;28;45886;-78
2022/10/14 02:33:19;;;;;;;;;4.25;4.00;;;;;17.18;74.25;100622.19;4997443;28;45589;-78
2022/10/14 02:35:47;;;;;;;;;4.00;4.00;;;;;17.17;74.42;100618.72;4997340;28;46125;-78
2022/10/14 02:38:14;;;;;;;;;3.50;3.00;;;;;17.14;74.70;100616.38;4996960;28;45682;-77
2022/10/14 02:40:44;;;;;;;;;4.00;4.00;;;;;17.12;75.05;100613.03;4996872;28;45629;-77
2022/10/14 02:43:10;;;;;;;;;4.00;4.00;;;;;17.12;74.61;100618.34;4996699;28;45571;-77
2022/10/14 02:45:38;;;;;;;;;4.50;4.00;;;;;17.07;75.03;100611.84;4996836;28;45653;-77
2022/10/14 02:48:04;;;;;;;;;5.00;4.50;;;;;17.06;75.03;100608.34;4978787;28;45579;-78
2022/10/14 02:50:31;;;;;;;;;4.75;4.75;;;;;17.04;74.92;100610.34;4996596;28;45558;-78
2022/10/14 02:52:56;;;;;;;;;4.00;3.50;;;;;17.00;75.49;100601.03;4996413;28;45773;-77
2022/10/14 02:55:21;;;;;;;;;5.00;5.00;;;;;16.97;75.11;100593.38;4996482;28;46213;-78
2022/10/14 02:57:47;;;;;;;;;5.25;3.75;;;;;17.00;74.98;100602.84;4995183;28;45613;-78
2022/10/14 03:00:13;;;;;;;;;5.75;5.00;;;;;16.97;75.38;100597.84;4996747;28;45740;-78
2022/10/14 03:02:38;;;;;;;;;5.00;4.50;;;;;17.00;75.58;100606.34;4996304;28;45605;-78
2022/10/14 03:05:04;;;;;;;;;3.00;3.00;;;;;16.98;75.83;100612.75;4978518;28;48128;-78
2022/10/14 03:07:30;;;;;;;;;5.00;5.00;;;;;16.93;75.74;100607.06;4996402;28;45576;-78
2022/10/14 03:09:57;;;;;;;;;5.00;4.25;;;;;16.92;76.10;100608.06;4996401;28;45588;-77
2022/10/14 03:12:23;;;;;;;;;5.00;4.25;;;;;16.90;76.53;100615.28;4996617;28;45796;-78
2022/10/14 03:14:48;;;;;;;;;4.00;3.00;;;;;16.89;76.22;100613.66;4996281;28;45723;-77
2022/10/14 03:17:13;;;;;;;;;3.00;3.00;;;;;16.85;76.67;100607.81;4996396;28;45609;-78
2022/10/14 03:19:39;;;;;;;;;4.00;3.00;;;;;16.85;76.57;100606.97;4996232;28;45490;-78
2022/10/14 03:22:04;;;;;;;;;4.25;3.00;;;;;16.81;76.80;100595.88;4995925;28;45528;-78
2022/10/14 03:24:29;;;;;;;;;6.00;4.25;;;;;16.80;76.71;100602.13;4996361;28;46162;-78
2022/10/14 03:30:16;;;;;;;;;4.50;3.75;;;;;16.73;77.21;100617.75;4995917;28;45732;-78
2022/10/14 03:32:42;;;;;;;;;2.00;2.00;;;;;16.71;77.75;100611.81;4995678;28;45923;-78
2022/10/14 03:35:08;;;;;;;;;2.75;2.00;;;;;16.71;77.16;100611.81;4996180;28;45785;-78
2022/10/14 03:37:33;;;;;;;;;3.25;3.25;;;;;16.66;77.47;100598.19;4996363;28;45682;-77
2022/10/14 03:39:58;;;;;;;;;3.25;2.00;;;;;16.61;77.13;100592.50;4996297;28;45521;-77
2022/10/14 03:42:24;;;;;;;;;4.50;3.25;;;;;16.61;77.00;100596.97;4995846;28;45655;-77
2022/10/14 03:44:49;;;;;;;;;3.00;2.00;;;;;16.58;77.66;100587.47;4995984;28;45897;-77
2022/10/14 03:47:15;;;;;;;;;2.25;2.25;;;;;16.56;77.48;100581.50;4996026;28;45513;-78
2022/10/14 03:49:40;;;;;;;;;1.50;1.50;;;;;16.59;77.35;100583.03;4995840;28;45652;-77
2022/10/14 03:52:06;;;;;;;;;3.00;2.00;;;;;16.62;77.44;100585.41;4995635;28;45560;-77
2022/10/14 03:54:31;;;;;;;;;4.00;3.00;;;;;16.65;77.18;100590.41;4995627;28;46081;-78
2022/10/14 04:00:46;;;;;;;;;2.00;2.00;;;;;16.59;76.86;100594.47;4994407;28;45646;-77
2022/10/14 04:03:11;;;;;;;;;2.00;1.25;;;;;16.57;76.88;100606.97;4995285;28;46753;-78
2022/10/14 04:05:37;;;;;;;;;1.00;1.00;;;;;16.54;77.29;100599.34;4995396;28;45663;-77
2022/10/14 04:08:03;;;;;;;;;3.00;2.00;;;;;16.52;77.21;100592.53;4995027;28;45648;-77
2022/10/14 04:10:28;;;;;;;;;1.00;1.00;;;;;16.53;77.09;100600.31;4995388;28;45631;-77
2022/10/14 04:12:54;;;;;;;;;1.00;1.00;;;;;16.54;76.80;100593.22;4995332;28;45635;-78
2022/10/14 04:15:21;;;;;;;;;1.00;1.00;;;;;16.53;76.65;100599.47;4995274;28;45993;-77
2022/10/14 04:17:47;;;;;;;;;1.00;1.00;;;;;16.54;76.71;100601.97;4995312;28;45742;-77
2022/10/14 04:20:13;;;;;;;;;0.00;0.00;;;;;16.55;76.78;100608.09;4995313;28;45709;-78
2022/10/14 04:22:38;;;;;;;;;1.00;1.00;;;;;16.49;76.09;100591.00;4995169;28;47057;-78
2022/10/14 04:25:04;;;;;;;;;1.00;1.00;;;;;16.50;76.47;100590.03;4995045;28;45711;-77
2022/10/14 04:30:51;;;;;;;;;1.00;1.00;;;;;16.49;76.64;100582.25;4994950;28;45621;-77
2022/10/14 04:33:16;;;;;;;;;2.00;1.50;;;;;16.50;76.56;100581.25;4994781;28;46287;-76
2022/10/14 04:35:42;;;;;;;;;1.50;1.50;;;;;16.49;76.45;100577.78;4995149;28;46623;-77
2022/10/14 04:38:07;;;;;;;;;2.00;2.00;;;;;16.49;76.32;100585.72;4976602;28;45919;-77
2022/10/14 04:40:33;;;;;;;;;2.00;1.00;;;;;16.51;76.52;100591.72;4994873;28;45723;-77
2022/10/14 04:42:58;;;;;;;;;0.75;0.75;;;;;16.52;76.51;100596.00;4994764;28;46409;-77
2022/10/14 04:45:24;;;;;;;;;1.00;1.00;;;;;16.55;76.17;100594.88;4994780;28;45623;-77
2022/10/14 04:47:50;;;;;;;;;0.25;0.25;;;;;16.52;76.07;100593.34;4994604;28;45793;-78
2022/10/14 04:50:17;;;;;;;;;1.00;1.00;;;;;16.54;76.41;100580.81;4994852;28;45565;-78
2022/10/14 04:52:42;;;;;;;;;0.00;0.00;;;;;16.57;76.20;100571.78;4994442;28;45592;-78
2022/10/14 04:55:08;;;;;;;;;2.00;2.00;;;;;16.58;76.27;100562.81;4994809;28;45730;-78
2022/10/14 05:00:55;;;;;;;;;2.00;0.00;;;;;16.60;75.96;100571.50;4993185;28;45671;-78
2022/10/14 05:03:20;;;;;;;;;1.00;1.00;;;;;16.61;75.69;100575.81;4994582;28;45677;-76
2022/10/14 05:05:46;;;;;;;;;1.00;1.00;;;;;16.61;75.97;100563.41;4994192;28;46398;-76
2022/10/14 05:08:11;;;;;;;;;1.00;1.00;;;;;16.62;75.95;100570.38;4994490;28;45617;-76
2022/10/14 05:10:37;;;;;;;;;2.00;1.25;;;;;16.61;75.81;100567.88;4994492;28;45694;-77
2022/10/14 05:13:03;;;;;;;;;1.00;1.00;;;;;16.61;75.80;100574.00;4975777;28;46490;-76
2022/10/14 05:15:29;;;;;;;;;1.00;1.00;;;;;16.60;75.71;100569.69;4996259;28;45605;-76
2022/10/14 05:17:55;;;;;;;;;0.75;0.75;;;;;16.61;75.63;100576.66;4994017;28;45671;-76
2022/10/14 05:20:20;;;;;;;;;1.00;1.00;;;;;16.63;75.96;100571.19;4992943;28;45868;-77
2022/10/14 05:22:46;;;;;;;;;1.00;1.00;;;;;16.60;75.57;100564.38;4975649;28;48275;-76
2022/10/14 05:25:11;;;;;;;;;0.25;0.00;;;;;16.63;75.69;100572.00;4994115;28;45417;-79
2022/10/14 05:30:59;;;;;;;;;2.00;1.75;;;;;16.59;75.94;100559.25;4993814;28;45600;-78
2022/10/14 05:33:24;;;;;;;;;1.00;0.25;;;;;16.58;75.99;100563.66;4993158;28;45824;-78
2022/10/14 05:35:49;;;;;;;;;2.00;2.00;;;;;16.59;75.72;100562.72;4994131;28;45757;-78
2022/10/14 05:38:15;;;;;;;;;2.00;2.00;;;;;16.58;75.98;100566.31;4994060;28;45631;-72
2022/10/14 05:40:40;;;;;;;;;1.25;1.25;;;;;16.56;75.78;100557.72;4993982;28;45654;-74
2022/10/14 05:46:27;;;;;;;;;2.75;1.50;;;;;16.53;76.16;100565.91;4997389;28;45948;-76
2022/10/14 05:48:53;;;;;;;;;2.00;2.00;;;;;16.52;75.94;100556.31;4995056;28;45661;-75
2022/10/14 05:51:20;;;;;;;;;2.00;2.00;;;;;16.49;76.56;100559.28;4994573;28;45757;-75
2022/10/14 05:53:48;;;;;;;;;3.25;2.00;;;;;16.49;76.20;100558.44;4994133;28;46533;-77
2022/10/14 05:56:13;;;;;;;;;3.00;3.00;;;;;16.50;76.19;100562.75;4974726;28;48031;-76
2022/10/14 05:58:40;;;;;;;;;4.00;3.00;;;;;16.49;76.47;100561.91;4993622;28;45641;-76
2022/10/14 06:01:07;;;;;;;;;3.50;3.00;;;;;16.51;76.29;100565.25;4993588;28;45892;-74
2022/10/14 06:03:33;;;;;;;;;4.50;4.00;;;;;16.52;76.58;100574.84;4993634;28;46861;-74
2022/10/14 06:05:59;;;;;;;;;4.00;3.00;;;;;16.54;76.63;100567.59;4993419;28;47361;-76
2022/10/14 06:08:24;;;;;;;;;3.25;3.25;;;;;16.56;76.26;100565.66;4992086;28;45715;-75
2022/10/14 06:10:51;;;;;;;;;4.25;4.25;;;;;16.56;76.70;100567.47;4993436;28;45584;-75
2022/10/14 06:16:38;;;;;;;;;4.00;4.00;;;;;16.61;76.05;100565.22;4993430;28;45796;-75
2022/10/14 06:19:03;;;;;;;;;4.00;3.00;;;;;16.63;76.69;100564.09;4993239;28;45660;-74
2022/10/14 06:21:28;;;;;;;;;4.00;4.00;;;;;16.67;76.03;100565.47;4993604;28;45571;-77
2022/10/14 06:23:54;;;;;;;;;3.50;3.50;;;;;16.69;75.85;100565.28;4993591;28;46587;-77
2022/10/14 06:26:19;;;;;;;;;6.75;5.00;;;;;16.71;76.04;100568.63;4993546;28;45965;-75
2022/10/14 06:32:08;;;;;;;;;3.00;3.00;;;;;16.72;75.90;100570.31;4995176;28;45624;-77
2022/10/14 06:34:34;;;;;;;;;4.00;3.25;;;;;16.73;76.07;100571.97;4996811;28;45631;-76
2022/10/14 06:37:00;;;;;;;;;5.50;3.25;;;;;16.75;75.90;100575.28;4996835;28;45664;-77
2022/10/14 06:39:25;;;;;;;;;3.25;3.25;;;;;16.77;75.78;100571.53;4996546;28;45743;-78
2022/10/14 06:41:50;;;;;;;;;4.00;4.00;;;;;16.77;75.56;100566.22;4996868;28;45534;-76
2022/10/14 06:44:16;;;;;;;;;5.00;3.00;;;;;16.76;75.29;100569.03;4996017;28;47495;-77
2022/10/14 06:46:41;;;;;;;;;4.00;4.00;;;;;16.76;75.70;100569.84;4996391;28;47057;-79
2022/10/14 06:49:07;;;;;;;;;6.50;4.00;;;;;16.77;75.37;100573.34;4978575;28;45536;-78
2022/10/14 06:51:32;;;;;;;;;6.00;3.00;;;;;16.76;75.45;100579.59;4996654;28;45769;-79
2022/10/14 06:53:57;;;;;;;;;3.75;3.75;;;;;16.75;75.27;100583.22;4996529;28;45536;-80
2022/10/14 06:56:23;;;;;;;;;4.25;4.00;;;;;16.75;75.33;100584.06;4978926;28;45665;-79
2022/10/14 07:02:10;;;;;;;;;4.75;3.25;;;;;16.72;75.07;100580.88;4994625;28;45680;-81
2022/10/14 07:04:38;;;;;;;;;2.75;2.25;;;;;16.71;74.63;100580.06;4996134;28;46251;-78
2022/10/14 07:07:03;;;;;;;;;3.00;2.00;;;;;16.71;75.02;100585.34;4996483;28;45936;-75
2022/10/14 07:09:29;;;;;;;;;2.00;2.00;;;;;16.69;74.85;100591.75;4994941;28;45754;-79
2022/10/14 07:11:55;;;;;;;;;2.50;2.00;;;;;16.65;74.55;100606.25;4996345;28;45687;-75
2022/10/14 07:14:20;;;;;;;;;3.00;3.00;;;;;16.59;74.84;100599.75;4996145;28;46705;-79
2022/10/14 07:16:45;;;;;;;;;3.25;3.00;;;;;16.56;74.66;100607.97;4996081;28;45705;-77
2022/10/14 07:19:11;;;;;;;;;2.00;1.50;;;;;16.55;74.68;100606.28;4995989;28;45564;-79
2022/10/14 07:21:36;;;;;;;;;2.00;1.75;;;;;16.55;74.64;100605.47;4995905;28;45754;-77
2022/10/14 07:24:02;;;;;;;;;2.00;2.00;;;;;16.53;75.15;100602.94;4995865;28;45660;-75
2022/10/14 07:26:31;;;;;;;;;4.75;2.00;;;;;16.53;74.90;100602.94;4995705;28;46636;-76
2022/10/14 07:32:18;;;;;;;;;4.00;2.75;;;;;16.44;75.25;100614.41;4995815;28;45854;-74
2022/10/14 07:34:43;;;;;;;;;2.75;2.75;;;;;16.39;75.16;100614.03;4995935;28;45763;-74
2022/10/14 07:37:09;;;;;;;;;3.25;2.00;;;;;16.33;75.34;100628.66;4995981;28;45674;-76
2022/10/14 07:39:34;;;;;;;;;2.00;2.00;;;;;16.28;75.17;100630.09;4995815;28;45531;-75
2022/10/14 07:41:59;;;;;;;;;5.50;1.75;;;;;16.20;75.36;100632.59;4995935;28;45538;-74
2022/10/14 07:47:48;;;;;;;;;1.00;1.00;;;;;16.13;75.79;100636.81;4995329;28;46014;-74
2022/10/14 07:50:13;;;;;;;;;1.00;0.50;;;;;16.11;75.73;100629.03;4995370;28;45635;-75
2022/10/14 07:52:39;;;;;;;;;2.00;1.00;;;;;16.12;75.54;100620.13;4996394;28;45786;-75
2022/10/14 07:55:05;;;;;;;;;1.00;1.00;;;;;16.15;75.03;100626.91;4996702;28;46257;-78
2022/10/14 07:57:30;;;;;;;;;1.00;1.00;;;;;16.16;75.40;100634.72;4994955;28;47875;-77
2022/10/14 07:59:57;;;;;;;;;1.00;1.00;;;;;16.19;75.22;100633.59;4995587;28;45484;-79
2022/10/14 08:02:22;;;;;;;;;0.75;0.75;;;;;16.22;75.21;100638.59;4995713;28;45506;-79
2022/10/14 08:04:52;;;;;;;;;2.00;1.00;;;;;16.23;74.78;100638.44;4995894;28;45774;-80
2022/10/14 08:07:17;;;;;;;;;1.00;1.00;;;;;16.24;74.91;100644.56;4995380;28;46741;-79
2022/10/14 08:09:42;;;;;;;;;1.00;1.00;;;;;16.24;74.54;100648.06;4995278;28;45632;-79
2022/10/14 08:12:08;;;;;;;;;1.50;1.00;;;;;16.25;74.65;100646.22;4994942;28;45597;-79
2022/10/14 08:17:55;;;;;;;;;1.00;1.00;;;;;16.30;74.36;100649.28;4995051;28;45902;-79
2022/10/14 08:20:21;;;;;;;;;2.00;1.00;;;;;16.28;73.97;100652.06;4994872;28;45590;-79
2022/10/14 08:22:46;;;;;;;;;2.00;1.00;;;;;16.29;74.10;100647.63;4995032;28;45893;-80
2022/10/14 08:25:11;;;;;;;;;0.75;0.75;;;;;16.32;73.73;100656.09;4994942;28;45624;-80
2022/10/14 08:27:37;;;;;;;;;1.00;1.00;;;;;16.33;73.65;100652.47;4994755;28;47183;-78
2022/10/14 08:30:05;;;;;;;;;1.00;1.00;;;;;16.34;74.05;100653.31;4995090;28;45709;-80
2022/10/14 08:32:30;;;;;;;;;1.00;1.00;;;;;16.35;73.67;100661.09;4995154;28;45597;-81
2022/10/14 08:34:55;;;;;;;;;3.00;1.00;;;;;16.36;73.80;100653.97;4994723;28;47790;-74
2022/10/14 08:37:21;;;;;;;;;2.00;1.00;;;;;16.39;73.54;100659.00;4976789;28;47918;-77
2022/10/14 08:39:46;;;;;;;;;2.00;1.00;;;;;16.42;73.98;100657.84;4994833;28;45739;-74
2022/10/14 08:49:04;;;;;;;;;2.00;1.00;;;;;16.60;73.38;100653.50;4994571;28;45832;-74
2022/10/14 08:51:31;;;;;;;;;1.00;1.00;;;;;16.61;73.40;100645.41;4994407;28;45702;-76
2022/10/14 08:54:05;;;;;;;;;3.00;2.00;;;;;16.65;73.44;100648.59;4994582;28;45822;-79
2022/10/14 08:56:34;;;;;;;;;1.75;1.00;;;;;16.68;73.12;100659.69;4993779;28;46464;-78
2022/10/14 08:59:13;;;;;;;;;1.00;1.00;;;;;16.70;72.73;100647.19;4994700;28;46089;-74
2022/10/14 09:01:56;;;;;;;;;1.25;1.25;;;;;16.74;72.98;100651.19;4993317;28;45955;-80
2022/10/14 09:04:21;;;;;;;;;2.00;1.00;;;;;16.76;72.91;100645.75;4994804;28;45611;-80
2022/10/14 09:06:49;;;;;;;;;1.00;1.00;;;;;16.78;73.01;100646.44;4994678;28;46192;-75
2022/10/14 09:09:35;;;;;;;;;2.00;1.00;;;;;16.81;73.12;100647.94;4994834;28;46122;-76
2022/10/14 09:12:06;;;;;;;;;2.25;1.25;;;;;16.84;72.77;100655.63;4976647;28;45667;-78
2022/10/14 09:14:36;;;;;;;;;1.00;1.00;;;;;16.87;72.74;100652.66;4994645;28;45531;-80
2022/10/14 09:17:07;;;;;;;;;1.00;1.00;;;;;16.91;73.02;100635.50;4994219;28;46770;-80
2022/10/14 09:19:45;;;;;;;;;3.00;2.00;;;;;16.93;72.68;100630.88;4994552;28;45918;-81
2022/10/14 09:22:13;;;;;;;;;3.00;3.00;;;;;16.94;72.87;100628.09;4993002;28;45647;-80
2022/10/14 09:24:40;;;;;;;;;2.50;2.00;;;;;16.97;72.42;100637.53;4976935;28;45922;-79
2022/10/14 09:27:12;;;;;;;;;1.25;1.00;;;;;17.01;72.70;100630.97;4994144;28;47529;-80
2022/10/14 09:29:49;;;;;;;;;2.00;1.25;;;;;17.03;72.53;100634.31;4994166;28;45877;-75
2022/10/14 09:32:28;;;;;;;;;2.00;2.00;;;;;17.06;72.48;100631.34;4994654;28;45653;-77
2022/10/14 09:34:56;;;;;;;;;2.50;2.25;;;;;17.08;72.72;100629.38;4994522;28;45715;-74
2022/10/14 09:37:31;;;;;;;;;3.00;2.00;;;;;17.11;72.43;100627.25;4993852;28;46716;-73
2022/10/14 09:40:15;;;;;;;;;3.00;2.00;;;;;17.13;72.50;100632.41;4994220;28;46226;-76
2022/10/14 09:46:06;;;;;;;;;1.00;1.00;;;;;17.16;72.48;100617.09;4994265;28;45466;-81
2022/10/14 09:48:49;;;;;;;;;2.00;1.25;;;;;17.17;72.54;100618.72;4994161;28;46483;-78
2022/10/14 09:51:24;;;;;;;;;2.00;2.00;;;;;17.20;72.18;100623.72;4994120;28;45863;-76
2022/10/14 09:53:53;;;;;;;;;2.00;1.75;;;;;17.21;72.43;100624.56;4976347;28;45690;-79
2022/10/14 09:56:41;;;;;;;;;2.00;2.00;;;;;17.23;72.47;100619.09;4994546;28;45797;-73
2022/10/14 10:02:45;;;;;;;;;2.25;2.25;;;;;17.25;72.29;100610.03;4996393;28;45789;-79
2022/10/14 10:05:24;;;;;;;;;2.75;2.75;;;;;17.25;71.93;100623.28;4999599;28;45597;-80
2022/10/14 10:08:12;;;;;;;;;2.00;2.00;;;;;17.26;72.18;100624.09;5003168;28;45490;-80
2022/10/14 10:10:38;;;;;;;;;2.00;2.00;;;;;17.29;71.90;100618.50;4999527;28;47618;-80
2022/10/14 10:16:33;;;;;;;;;3.00;2.25;;;;;17.37;72.05;100613.28;4998172;28;45733;-79
2022/10/14 10:19:28;;;;;;;;;3.00;2.00;;;;;17.39;71.62;100619.25;4998064;28;45555;-77
2022/10/14 10:22:13;;;;;;;;;3.00;3.00;;;;;17.41;71.77;100615.47;4998178;28;45717;-79
2022/10/14 10:24:39;;;;;;;;;2.75;2.75;;;;;17.42;71.52;100614.50;4997939;28;47069;-79
2022/10/14 10:27:18;;;;;;;;;3.50;3.50;;;;;17.46;71.51;100615.84;4996261;28;45680;-73
2022/10/14 10:33:33;;;;;;;;;4.00;3.00;;;;;17.53;71.20;100597.53;4997063;28;45991;-74
2022/10/14 10:36:16;;;;;;;;;4.00;2.00;;;;;17.56;71.34;100598.03;4996918;28;45889;-79
2022/10/14 10:38:58;;;;;;;;;2.00;2.00;;;;;17.60;70.80;100603.88;4997386;28;45786;-80
2022/10/14 10:41:27;;;;;;;;;3.00;2.00;;;;;17.65;70.76;100601.63;4980807;28;45710;-74
2022/10/14 10:44:14;;;;;;;;;1.00;1.00;;;;;17.71;70.92;100597.50;4997577;28;45761;-73
2022/10/14 10:46:50;;;;;;;;;1.00;1.00;;;;;17.74;70.76;100595.38;4998214;28;45980;-74
2022/10/14 10:49:43;;;;;;;;;1.00;0.00;;;;;17.78;70.43;100587.94;4997665;28;45719;-73
2022/10/14 10:52:41;;;;;;;;;1.00;1.00;;;;;17.79;69.65;100593.09;4997400;28;45661;-72
2022/10/14 10:55:21;;;;;;;;;0.50;0.50;;;;;17.82;69.72;100573.38;4979665;28;46547;-75
2022/10/14 10:58:01;;;;;;;;;1.00;1.00;;;;;17.84;70.03;100566.97;4997062;28;45658;-74
2022/10/14 11:00:31;;;;;;;;;1.50;1.50;;;;;17.86;69.69;100557.03;4996757;28;45595;-75
2022/10/14 11:03:23;;;;;;;;;0.75;0.75;;;;;17.88;70.15;100557.69;4996859;28;45810;-72
2022/10/14 11:12:38;;;;;;;;;2.00;2.00;;;;;17.76;69.83;100555.50;4917431;28;45808;-77
2022/10/14 11:18:52;;;;;;;;;2.75;2.00;;;;;17.73;70.11;100547.84;4915835;28;46124;-74
2022/10/14 11:21:33;;;;;;;;;3.00;2.75;;;;;17.75;70.47;100549.34;4903373;28;46650;-73
2022/10/14 11:24:06;;;;;;;;;3.00;3.00;;;;;17.78;70.41;100537.59;4918686;28;45756;-75
2022/10/14 11:27:07;;;;;;;;;3.00;3.00;;;;;17.80;70.52;100522.38;4918341;28;45740;-74
2022/10/14 11:29:35;;;;;;;;;3.75;3.00;;;;;17.83;70.17;100517.59;4917093;28;48163;-73
2022/10/14 11:32:16;;;;;;;;;4.00;4.00;;;;;17.85;70.91;100512.97;4901325;28;47664;-73
2022/10/14 11:35:15;;;;;;;;;4.50;3.25;;;;;17.90;70.88;100507.19;4921692;28;45755;-76
2022/10/14 11:37:59;;;;;;;;;3.00;3.00;;;;;17.92;70.55;100507.88;4921057;28;45544;-77
2022/10/14 11:40:54;;;;;;;;;2.00;2.00;;;;;17.96;70.58;100506.56;4919297;28;45762;-72
2022/10/14 11:46:38;;;;;;;;;1.75;1.75;;;;;18.00;70.50;100502.59;4977140;28;45558;-76
2022/10/14 11:49:24;;;;;;;;;1.50;1.50;;;;;18.02;70.68;100495.31;4996716;28;45667;-71
2022/10/14 11:52:01;;;;;;;;;1.00;1.00;;;;;18.03;70.42;100494.31;4997334;28;46820;-72
2022/10/14 11:54:37;;;;;;;;;1.00;1.00;;;;;18.04;70.41;100486.19;4998068;28;46075;-80
2022/10/14 11:57:09;;;;;;;;;1.00;1.00;;;;;18.06;69.78;100485.22;4996367;28;45620;-75
2022/10/14 12:03:02;;;;;;;;;2.00;0.50;;;;;18.06;69.73;100472.78;4994132;28;45935;-74
2022/10/14 12:05:43;;;;;;;;;2.00;1.00;;;;;18.06;69.56;100464.84;4995516;28;45723;-75
2022/10/14 12:08:29;;;;;;;;;0.00;0.00;;;;;18.08;69.62;100457.56;4995591;28;45535;-73
2022/10/14 12:11:17;;;;;;;;;1.50;1.50;;;;;18.08;69.61;100452.25;4995458;28;45597;-72
2022/10/14 12:20:14;;;;;;;;;2.50;1.00;;;;;18.04;70.15;100437.63;4996736;28;45707;-78
2022/10/14 12:22:40;;;;;;;;;1.00;0.75;;;;;18.05;69.43;100434.00;4996479;28;45493;-80
2022/10/14 12:25:13;;;;;;;;;1.25;1.00;;;;;18.02;69.86;100427.22;4995410;28;46392;-79
2022/10/14 12:27:39;;;;;;;;;1.00;1.00;;;;;18.06;69.94;100440.13;4995331;28;46327;-77
2022/10/14 12:30:27;;;;;;;;;1.75;1.50;;;;;18.07;69.84;100424.06;4995182;28;45646;-78
2022/10/14 12:33:05;;;;;;;;;2.00;2.00;;;;;18.08;69.75;100423.09;4995568;28;45513;-79
2022/10/14 12:35:50;;;;;;;;;1.00;0.75;;;;;18.08;69.68;100403.69;4995331;28;46753;-75
2022/10/14 12:38:17;;;;;;;;;2.75;2.00;;;;;18.10;69.67;100396.41;4995002;28;46110;-77
2022/10/14 12:40:42;;;;;;;;;1.25;1.25;;;;;18.11;70.01;100392.75;4994777;28;45754;-81
2022/10/14 12:43:22;;;;;;;;;2.75;2.00;;;;;18.13;69.60;100385.47;4994931;28;45628;-76
2022/10/14 12:45:56;;;;;;;;;2.00;2.00;;;;;18.16;70.01;100390.44;4995046;28;45560;-79
2022/10/14 12:48:26;;;;;;;;;2.75;2.25;;;;;18.17;69.71;100379.69;4995003;28;45894;-78
2022/10/14 12:51:06;;;;;;;;;1.75;1.00;;;;;18.19;69.96;100368.91;4994871;28;45726;-76
2022/10/14 12:53:33;;;;;;;;;3.75;2.00;;;;;18.21;69.67;100366.91;4977040;28;45953;-74
2022/10/14 12:56:01;;;;;;;;;3.25;3.00;;;;;18.22;70.20;100360.63;4994455;28;47414;-77
2022/10/14 12:58:37;;;;;;;;;2.25;2.25;;;;;18.22;70.17;100344.72;4994476;28;45714;-78
2022/10/14 13:01:15;;;;;;;;;2.25;2.00;;;;;18.23;70.37;100349.84;4994782;28;45509;-78
2022/10/14 13:04:17;;;;;;;;;4.00;3.00;;;;;18.24;69.93;100338.25;4994557;28;45826;-75
2022/10/14 13:06:43;;;;;;;;;2.00;2.00;;;;;18.24;70.30;100330.31;4994494;28;46411;-78
2022/10/14 13:09:11;;;;;;;;;4.00;3.50;;;;;18.24;70.52;100329.47;4993047;28;47040;-78
2022/10/14 13:11:38;;;;;;;;;3.75;3.00;;;;;18.25;70.24;100329.28;4994517;28;45651;-76
2022/10/14 13:17:40;;;;;;;;;2.75;2.75;;;;;18.24;70.64;100318.88;4994248;28;45673;-79
2022/10/14 13:20:46;;;;;;;;;4.00;3.00;;;;;18.24;70.71;100316.22;4994458;28;45850;-77
2022/10/14 13:23:29;;;;;;;;;4.75;3.00;;;;;18.23;70.94;100304.78;4993690;28;45631;-75
2022/10/14 13:26:32;;;;;;;;;3.00;3.00;;;;;18.22;71.09;100303.09;4994555;28;45593;-75
2022/10/14 13:29:00;;;;;;;;;3.75;3.00;;;;;18.19;71.17;100297.31;4994450;28;45894;-79